Time;durP1;ratioP1;P1;durP2;ratioP2;P2;SDS_P1;SDS_P2;PMS_P1;PMS_P2;Temp;Humidity;BMP_temperature;BMP_pressure;BME280_temperature;BME280_humidity;BME280_pressure;Samples;Min_cycle;Max_cycle;Signal;HPM_P1;HPM_P2
2023/04/05 00:01:07;;;;;;;9.77;5.43;;;;;;;4.74;77.76;102357.88;5242572;28;20076;-67
2023/04/05 00:03:39;;;;;;;8.43;5.72;;;;;;;4.59;80.42;102351.47;5243430;28;20417;-67
2023/04/05 00:06:11;;;;;;;7.85;5.95;;;;;;;4.72;80.82;102370.03;5244077;28;20116;-67
2023/04/05 00:08:48;;;;;;;8.48;5.95;;;;;;;4.67;80.70;102375.41;5244408;28;20490;-67
2023/04/05 00:11:30;;;;;;;11.90;6.45;;;;;;;4.79;78.10;102379.31;5241550;28;20404;-67
2023/04/05 00:14:02;;;;;;;8.02;6.10;;;;;;;4.58;80.98;102379.19;5243654;28;20037;-67
2023/04/05 00:16:35;;;;;;;7.75;5.90;;;;;;;4.52;80.11;102376.78;5244323;28;20068;-67
2023/04/05 00:19:06;;;;;;;7.70;5.70;;;;;;;4.48;78.10;102370.00;5245527;28;20536;-67
2023/04/05 00:21:38;;;;;;;8.52;5.47;;;;;;;4.38;79.96;102364.28;5243146;28;20086;-67
2023/04/05 00:24:14;;;;;;;7.30;5.78;;;;;;;4.42;78.19;102351.19;5246596;28;20322;-67
2023/04/05 00:26:45;;;;;;;8.32;5.47;;;;;;;4.34;79.60;102367.88;5241557;28;20036;-67
2023/04/05 00:29:16;;;;;;;8.95;5.85;;;;;;;4.35;78.95;102363.53;5242914;28;20398;-67
2023/04/05 00:31:48;;;;;;;9.80;5.75;;;;;;;4.30;78.96;102360.25;5244344;28;20112;-67
2023/04/05 00:34:19;;;;;;;7.82;5.00;;;;;;;4.30;78.17;102353.31;5241445;28;20029;-67
2023/04/05 00:36:50;;;;;;;7.97;5.03;;;;;;;4.28;78.31;102364.63;5243790;28;20021;-67
2023/04/05 00:39:21;;;;;;;8.93;5.78;;;;;;;4.17;79.44;102353.78;5243280;28;20033;-67
2023/04/05 00:41:53;;;;;;;8.02;5.75;;;;;;;4.09;80.33;102354.91;5241431;28;20821;-67
2023/04/05 00:44:25;;;;;;;10.45;5.57;;;;;;;4.02;82.02;102353.41;5246300;28;20555;-67
2023/04/05 00:46:56;;;;;;;10.30;6.83;;;;;;;4.01;82.76;102341.31;5248494;28;20851;-67
2023/04/05 00:49:30;;;;;;;9.10;5.90;;;;;;;4.00;81.42;102343.97;5246957;28;20032;-67
2023/04/05 00:52:02;;;;;;;9.50;5.80;;;;;;;3.90;81.69;102346.88;5247911;28;20047;-69
2023/04/05 00:54:34;;;;;;;9.07;6.47;;;;;;;3.96;81.93;102340.63;5246622;28;20064;-69
2023/04/05 00:57:06;;;;;;;10.00;6.40;;;;;;;3.90;81.63;102340.81;5248379;28;20108;-69
2023/04/05 00:59:38;;;;;;;8.10;6.18;;;;;;;3.86;81.76;102334.06;5245893;28;20522;-69
2023/04/05 01:02:16;;;;;;;9.18;6.43;;;;;;;3.98;81.02;102341.44;5246921;28;20138;-70
2023/04/05 01:04:55;;;;;;;10.38;6.95;;;;;;;3.84;81.52;102354.00;5244649;28;20120;-69
2023/04/05 01:07:49;;;;;;;11.38;6.38;;;;;;;4.01;80.75;102345.66;5246160;28;20474;-70
2023/04/05 01:10:27;;;;;;;9.73;6.43;;;;;;;3.74;82.10;102356.03;5242745;28;20135;-70
2023/04/05 01:12:59;;;;;;;9.57;6.50;;;;;;;3.69;83.31;102354.50;5247503;28;20032;-69
2023/04/05 01:15:31;;;;;;;10.43;6.03;;;;;;;3.66;82.62;102343.31;5247383;28;20493;-69
2023/04/05 01:18:03;;;;;;;8.07;6.18;;;;;;;3.53;82.14;102351.56;5246879;28;20111;-69
2023/04/05 01:20:39;;;;;;;13.38;5.88;;;;;;;3.61;82.83;102344.38;5248945;28;20078;-69
2023/04/05 01:23:36;;;;;;;8.50;6.95;;;;;;;3.84;82.75;102343.63;5244931;28;20419;-69
2023/04/05 01:26:49;;;;;;;9.93;6.93;;;;;;;3.91;81.49;102342.53;5247980;28;20029;-70
2023/04/05 01:29:34;;;;;;;10.75;6.47;;;;;;;3.81;82.16;102329.03;5246011;28;20040;-70
2023/04/05 01:32:47;;;;;;;10.35;6.35;;;;;;;3.81;82.50;102330.78;5247423;28;20530;-70
2023/04/05 01:35:34;;;;;;;10.40;6.22;;;;;;;3.69;80.75;102332.03;5249025;28;20086;-70
2023/04/05 01:38:10;;;;;;;9.48;6.10;;;;;;;3.46;82.06;102326.72;5248748;28;20037;-69
2023/04/05 01:40:41;;;;;;;10.38;5.72;;;;;;;3.39;82.06;102319.13;5248545;28;20667;-70
2023/04/05 01:43:14;;;;;;;10.40;6.47;;;;;;;3.34;84.49;102315.00;5246882;28;20125;-69
2023/04/05 01:45:46;;;;;;;8.77;6.30;;;;;;;3.36;82.55;102326.16;5249373;28;20039;-67
2023/04/05 01:48:17;;;;;;;10.15;6.10;;;;;;;3.22;84.41;102305.00;5244151;28;20421;-67
2023/04/05 01:50:48;;;;;;;8.88;6.60;;;;;;;3.26;85.63;102320.41;5247694;28;20036;-67
2023/04/05 01:53:20;;;;;;;11.23;5.95;;;;;;;3.22;84.53;102315.34;5248896;28;20390;-67
2023/04/05 01:55:51;;;;;;;9.38;6.50;;;;;;;3.21;84.38;102318.84;5243669;28;20516;-67
2023/04/05 01:58:23;;;;;;;8.98;6.35;;;;;;;3.14;82.76;102316.47;5246582;28;20187;-67
2023/04/05 02:00:54;;;;;;;7.75;6.05;;;;;;;3.12;85.85;102313.06;5248140;28;20104;-67
2023/04/05 02:03:26;;;;;;;9.23;6.13;;;;;;;3.11;84.77;102313.13;5249245;28;20387;-67
2023/04/05 02:05:57;;;;;;;8.55;6.45;;;;;;;3.05;86.03;102310.69;5247326;28;20600;-67
2023/04/05 02:08:28;;;;;;;8.38;6.35;;;;;;;3.01;85.31;102311.69;5246987;28;20589;-67
2023/04/05 02:11:00;;;;;;;8.55;6.30;;;;;;;3.03;83.59;102310.75;5245218;28;20489;-67
2023/04/05 02:13:31;;;;;;;9.02;5.70;;;;;;;3.01;84.54;102298.75;5246695;28;20397;-67
2023/04/05 02:16:02;;;;;;;11.13;5.80;;;;;;;2.98;87.10;102306.59;5245077;28;20533;-67
2023/04/05 02:18:37;;;;;;;11.10;6.93;;;;;;;3.01;84.02;102311.69;5249268;28;20528;-67
2023/04/05 02:21:10;;;;;;;10.85;5.85;;;;;;;2.97;84.90;102307.50;5247859;28;20040;-66
2023/04/05 02:23:41;;;;;;;9.80;6.07;;;;;;;2.92;86.72;102305.03;5246800;28;20028;-66
2023/04/05 02:26:12;;;;;;;8.00;6.28;;;;;;;2.92;86.81;102300.72;5246940;28;20507;-66
2023/04/05 02:28:44;;;;;;;8.93;5.95;;;;;;;2.80;89.83;102301.03;5246464;28;20041;-67
2023/04/05 02:31:15;;;;;;;10.52;6.35;;;;;;;2.82;86.76;102294.09;5243478;28;20059;-66
2023/04/05 02:33:47;;;;;;;9.00;6.00;;;;;;;2.82;86.69;102301.03;5247869;28;20490;-67
2023/04/05 02:36:18;;;;;;;9.15;6.35;;;;;;;2.77;87.97;102298.56;5244375;28;20033;-67
2023/04/05 02:38:50;;;;;;;7.30;6.28;;;;;;;2.74;87.86;102293.47;5247376;28;20043;-67
2023/04/05 02:41:24;;;;;;;14.93;7.00;;;;;;;2.77;87.60;102292.56;5246550;28;20150;-67
2023/04/05 02:43:56;;;;;;;9.02;6.78;;;;;;;2.69;89.66;102297.94;5246328;28;20033;-66
2023/04/05 02:46:27;;;;;;;11.48;6.85;;;;;;;2.71;88.36;102287.53;5246524;28;20482;-67
2023/04/05 02:48:58;;;;;;;8.95;6.03;;;;;;;2.57;89.81;102278.41;5241901;28;20078;-67
2023/04/05 02:51:33;;;;;;;10.02;6.63;;;;;;;2.68;89.26;102296.22;5245265;28;20025;-66
2023/04/05 02:54:04;;;;;;;10.63;7.40;;;;;;;2.62;86.51;102286.06;5244332;28;20052;-67
2023/04/05 02:56:35;;;;;;;8.95;7.07;;;;;;;2.64;86.45;102287.72;5243471;28;20025;-67
2023/04/05 02:59:07;;;;;;;10.57;6.68;;;;;;;2.60;85.77;102288.69;5246501;28;20494;-66
2023/04/05 03:01:42;;;;;;;9.13;6.63;;;;;;;2.61;85.84;102287.81;5245078;28;20064;-67
2023/04/05 03:04:16;;;;;;;9.60;6.88;;;;;;;2.57;86.83;102288.78;5245160;28;20055;-66
2023/04/05 03:06:48;;;;;;;8.63;6.13;;;;;;;2.61;87.72;102286.94;5242764;28;20032;-67
2023/04/05 03:09:20;;;;;;;9.93;6.95;;;;;;;2.54;87.01;102288.88;5246254;28;20035;-66
2023/04/05 03:11:51;;;;;;;10.30;6.22;;;;;;;2.47;87.88;102279.59;5241558;28;20367;-66
2023/04/05 03:14:23;;;;;;;8.80;5.75;;;;;;;2.48;87.08;102275.25;5245079;28;20039;-66
2023/04/05 03:16:54;;;;;;;8.13;6.57;;;;;;;2.43;89.09;102273.66;5245095;28;20071;-66
2023/04/05 03:19:26;;;;;;;10.93;6.40;;;;;;;2.37;87.74;102266.06;5245968;28;20028;-66
2023/04/05 03:21:57;;;;;;;10.38;7.05;;;;;;;2.40;88.42;102276.31;5243889;28;20494;-66
2023/04/05 03:24:28;;;;;;;9.25;6.15;;;;;;;2.37;89.76;102265.22;5246183;28;20025;-67
2023/04/05 03:27:04;;;;;;;9.15;6.40;;;;;;;2.49;88.65;102264.00;5244066;28;20340;-67
2023/04/05 03:29:36;;;;;;;11.75;6.32;;;;;;;2.27;90.11;102266.34;5243163;28;20312;-67
2023/04/05 03:32:10;;;;;;;9.60;6.63;;;;;;;2.26;89.08;102259.47;5244491;28;20415;-68
2023/04/05 03:34:42;;;;;;;9.45;6.10;;;;;;;2.22;88.08;102263.03;5244285;28;20030;-69
2023/04/05 03:37:13;;;;;;;10.73;6.93;;;;;;;2.21;88.21;102261.34;5242665;28;20496;-66
2023/04/05 03:39:45;;;;;;;10.65;6.25;;;;;;;2.23;86.88;102259.56;5246759;28;20033;-66
2023/04/05 03:42:16;;;;;;;10.52;6.43;;;;;;;2.18;88.48;102257.94;5245126;28;20091;-66
2023/04/05 03:44:51;;;;;;;11.77;6.78;;;;;;;2.31;88.28;102262.78;5246204;28;20029;-66
2023/04/05 03:47:23;;;;;;;10.00;6.47;;;;;;;2.24;89.18;102256.94;5242452;28;20096;-66
2023/04/05 03:49:54;;;;;;;8.35;6.18;;;;;;;2.12;90.17;102258.13;5244408;28;20501;-66
2023/04/05 03:52:25;;;;;;;10.25;6.97;;;;;;;2.13;91.10;102253.81;5246575;28;20136;-66
2023/04/05 03:54:57;;;;;;;10.73;6.70;;;;;;;2.04;90.16;102244.53;5242291;28;20183;-66
2023/04/05 03:57:29;;;;;;;9.90;6.63;;;;;;;2.24;90.85;102253.53;5244032;28;20029;-66
2023/04/05 04:00:00;;;;;;;12.13;7.80;;;;;;;2.08;89.37;102253.06;5245911;28;20025;-67
2023/04/05 04:02:31;;;;;;;9.75;6.53;;;;;;;2.07;89.63;102248.78;5244613;28;20098;-67
2023/04/05 04:05:03;;;;;;;9.85;6.40;;;;;;;2.06;90.30;102241.94;5244035;28;20262;-66
2023/04/05 04:07:34;;;;;;;13.55;7.70;;;;;;;2.00;89.71;102248.09;5244202;28;20028;-66
2023/04/05 04:10:07;;;;;;;10.48;6.50;;;;;;;2.04;90.81;102243.69;5242375;28;20033;-66
2023/04/05 04:12:38;;;;;;;10.27;7.50;;;;;;;1.99;89.22;102230.91;5242855;28;20041;-69
2023/04/05 04:15:10;;;;;;;13.93;6.97;;;;;;;2.02;90.16;102236.00;5243846;28;20029;-69
2023/04/05 04:17:41;;;;;;;9.77;6.90;;;;;;;1.97;89.30;102244.75;5241304;28;20039;-69
2023/04/05 04:20:13;;;;;;;11.48;6.60;;;;;;;1.98;91.45;102241.28;5243262;28;20033;-66
2023/04/05 04:22:47;;;;;;;10.50;7.45;;;;;;;1.95;89.37;102237.88;5244834;28;20045;-67
2023/04/05 04:25:19;;;;;;;12.25;7.50;;;;;;;1.95;88.94;102245.63;5245435;28;20444;-67
2023/04/05 04:27:51;;;;;;;9.20;6.45;;;;;;;1.93;90.14;102241.38;5244168;28;20031;-66
2023/04/05 04:30:24;;;;;;;8.20;6.57;;;;;;;1.91;91.37;102249.19;5246562;28;20036;-66
2023/04/05 04:32:56;;;;;;;11.80;6.72;;;;;;;1.87;92.11;102236.41;5243491;28;20106;-69
2023/04/05 04:35:29;;;;;;;8.52;6.82;;;;;;;1.87;89.56;102238.97;5244305;28;20105;-69
2023/04/05 04:38:06;;;;;;;9.25;6.22;;;;;;;1.89;89.28;102240.63;5244493;28;20623;-69
2023/04/05 04:40:37;;;;;;;8.50;6.40;;;;;;;1.80;89.41;102238.28;5244586;28;20064;-69
2023/04/05 04:43:15;;;;;;;8.70;6.40;;;;;;;1.84;93.26;102233.88;5245142;28;20108;-69
2023/04/05 04:45:48;;;;;;;8.07;6.30;;;;;;;1.81;91.84;102241.72;5243636;28;20044;-68
2023/04/05 04:48:20;;;;;;;12.90;7.22;;;;;;;1.75;92.28;102239.31;5241482;28;20020;-69
2023/04/05 04:50:51;;;;;;;8.55;6.00;;;;;;;1.71;91.15;102243.69;5245856;28;20037;-69
2023/04/05 04:53:22;;;;;;;10.90;6.40;;;;;;;1.68;90.33;102236.03;5244340;28;20161;-69
2023/04/05 04:55:55;;;;;;;7.68;5.88;;;;;;;1.69;90.02;102238.56;5244563;28;20025;-68
2023/04/05 04:58:28;;;;;;;8.45;5.97;;;;;;;1.72;91.18;102245.41;5241325;28;20075;-69
2023/04/05 05:01:00;;;;;;;9.45;6.57;;;;;;;1.62;92.09;102234.44;5241800;28;20467;-69
2023/04/05 05:03:33;;;;;;;10.90;5.78;;;;;;;1.70;92.11;102240.28;5246265;28;20156;-66
2023/04/05 05:06:05;;;;;;;10.65;6.43;;;;;;;1.67;91.51;102232.59;5238494;28;20045;-67
2023/04/05 05:08:36;;;;;;;8.68;6.22;;;;;;;1.70;91.79;102234.22;5243641;28;20035;-67
2023/04/05 05:11:08;;;;;;;8.38;6.38;;;;;;;1.66;92.54;102243.78;5242711;28;20059;-66
2023/04/05 05:13:39;;;;;;;9.40;6.60;;;;;;;1.68;93.97;102238.59;5243273;28;20026;-67
2023/04/05 05:16:10;;;;;;;10.48;6.15;;;;;;;1.68;94.00;102247.19;5235860;28;20115;-66
2023/04/05 05:18:44;;;;;;;7.22;5.88;;;;;;;1.65;93.43;102236.94;5244910;28;20091;-67
2023/04/05 05:21:15;;;;;;;11.48;6.30;;;;;;;1.59;92.81;102237.13;5236997;28;20032;-68
2023/04/05 05:23:47;;;;;;;13.00;6.20;;;;;;;1.64;92.19;102234.41;5246189;28;20185;-66
2023/04/05 05:26:18;;;;;;;8.32;5.75;;;;;;;1.60;92.57;102236.22;5244821;28;20512;-67
2023/04/05 05:28:49;;;;;;;10.07;6.10;;;;;;;1.67;93.20;102235.19;5246925;28;20783;-67
2023/04/05 05:31:21;;;;;;;9.70;6.35;;;;;;;1.66;95.04;102233.47;5249658;28;20394;-67
2023/04/05 05:33:52;;;;;;;8.63;5.63;;;;;;;1.72;94.14;102227.31;5244850;28;20029;-67
2023/04/05 05:36:24;;;;;;;11.23;6.40;;;;;;;1.75;92.67;102226.41;5248312;28;20077;-67
2023/04/05 05:38:55;;;;;;;9.57;6.15;;;;;;;1.64;93.33;102230.09;5251162;28;20036;-67
2023/04/05 05:41:27;;;;;;;12.18;6.55;;;;;;;1.68;93.36;102225.69;5251391;28;20035;-67
2023/04/05 05:43:58;;;;;;;11.07;6.97;;;;;;;1.70;92.82;102226.47;5248348;28;20033;-67
2023/04/05 05:46:29;;;;;;;10.65;6.32;;;;;;;1.70;95.54;102218.72;5250149;28;20025;-67
2023/04/05 05:49:01;;;;;;;11.73;6.38;;;;;;;1.78;94.73;102231.44;5246772;28;20033;-67
2023/04/05 05:51:32;;;;;;;10.68;7.00;;;;;;;1.85;96.47;102226.09;5250469;28;20044;-67
2023/04/05 05:54:03;;;;;;;11.65;7.10;;;;;;;1.87;95.08;102229.50;5247508;28;20042;-67
2023/04/05 05:56:35;;;;;;;10.65;6.80;;;;;;;1.88;95.10;102232.91;5242110;28;20037;-67
2023/04/05 05:59:06;;;;;;;18.13;6.95;;;;;;;1.87;93.26;102239.81;5247364;28;20049;-66
2023/04/05 06:01:41;;;;;;;11.05;7.18;;;;;;;1.94;94.83;102243.09;5250297;28;20079;-67
2023/04/05 06:04:13;;;;;;;11.77;7.43;;;;;;;1.99;97.71;102241.25;5246927;28;20513;-67
2023/04/05 06:06:46;;;;;;;14.90;7.65;;;;;;;2.04;97.99;102238.53;5246652;28;20029;-67
2023/04/05 06:09:17;;;;;;;;;;;;;;;2.59;93.58;102237.84;5248137;28;20028;-67
2023/04/05 06:11:52;;;;;;;11.73;7.43;;;;;;;2.22;98.31;102237.19;5247637;28;19916;-67
2023/04/05 06:14:24;;;;;;;11.63;7.53;;;;;;;2.09;99.91;102234.94;5242070;28;20290;-67
2023/04/05 06:16:55;;;;;;;15.30;7.45;;;;;;;2.19;100.00;102238.94;5246829;28;20194;-67
2023/04/05 06:19:26;;;;;;;14.45;8.23;;;;;;;2.21;100.00;102245.84;5243844;28;20112;-67
2023/04/05 06:21:59;;;;;;;12.15;8.10;;;;;;;2.30;100.00;102248.16;5244126;28;20024;-67
2023/04/05 06:24:31;;;;;;;13.13;8.85;;;;;;;2.38;100.00;102253.97;5239679;28;20100;-67
2023/04/05 06:27:02;;;;;;;12.88;8.43;;;;;;;2.43;100.00;102254.69;5243804;28;20032;-67
2023/04/05 06:29:33;;;;;;;13.82;8.25;;;;;;;2.47;100.00;102243.38;5220593;28;20033;-67
2023/04/05 06:32:05;;;;;;;17.55;9.50;;;;;;;2.56;100.00;102245.69;5228818;28;20037;-67
2023/04/05 06:34:36;;;;;;;15.68;9.25;;;;;;;2.61;100.00;102246.41;5245095;28;20108;-67
2023/04/05 06:37:07;;;;;;;16.42;9.27;;;;;;;2.65;100.00;102247.16;5244696;28;20029;-67
2023/04/05 06:39:39;;;;;;;13.63;9.30;;;;;;;2.73;100.00;102242.63;5245830;28;20037;-66
2023/04/05 06:42:10;;;;;;;12.40;9.35;;;;;;;2.82;100.00;102239.75;5245446;28;20098;-67
2023/04/05 06:44:41;;;;;;;13.98;9.70;;;;;;;2.93;100.00;102240.28;5246145;28;20098;-68
2023/04/05 06:47:13;;;;;;;18.80;10.93;;;;;;;3.06;100.00;102245.06;5241012;28;20112;-67
2023/04/05 06:49:44;;;;;;;16.58;10.15;;;;;;;3.21;100.00;102241.16;5240050;28;20507;-67
2023/04/05 06:52:15;;;;;;;15.00;11.00;;;;;;;3.35;100.00;102238.97;5241758;28;20162;-67
2023/04/05 06:54:47;;;;;;;14.52;10.88;;;;;;;3.48;100.00;102250.63;5246008;28;20379;-67
2023/04/05 06:57:18;;;;;;;19.90;11.20;;;;;;;3.63;96.01;102250.13;5238235;28;20378;-67
2023/04/05 06:59:51;;;;;;;12.77;10.50;;;;;;;3.79;92.98;102252.19;5241858;28;20048;-67
2023/04/05 07:02:22;;;;;;;12.88;10.25;;;;;;;3.96;90.12;102249.03;5244950;28;20323;-67
2023/04/05 07:04:59;;;;;;;13.40;10.05;;;;;;;4.06;89.81;102247.84;5242641;28;20036;-67
2023/04/05 07:07:32;;;;;;;13.98;10.18;;;;;;;4.17;90.27;102250.91;5245485;28;20037;-67
2023/04/05 07:10:04;;;;;;;18.67;10.57;;;;;;;4.46;86.24;102247.22;5245618;28;20033;-67
2023/04/05 07:12:36;;;;;;;14.05;9.48;;;;;;;4.68;79.79;102246.44;5249036;28;20086;-67
2023/04/05 07:15:08;;;;;;;22.50;10.00;;;;;;;4.73;83.09;102250.53;5244988;28;20056;-67
2023/04/05 07:17:40;;;;;;;13.77;9.88;;;;;;;4.94;79.41;102250.66;5250069;28;20025;-67
2023/04/05 07:20:11;;;;;;;13.85;8.95;;;;;;;5.10;81.07;102251.72;5239515;28;20020;-67
2023/04/05 07:22:42;;;;;;;15.25;8.50;;;;;;;5.30;73.24;102243.13;5239504;28;20037;-68
2023/04/05 07:25:14;;;;;;;13.82;9.07;;;;;;;5.47;73.56;102248.50;5244824;28;20028;-67
2023/04/05 07:27:45;;;;;;;13.10;8.85;;;;;;;5.62;75.66;102254.84;5244039;28;20075;-67
2023/04/05 07:30:16;;;;;;;13.80;8.15;;;;;;;5.74;68.21;102248.28;5240203;28;20627;-67
2023/04/05 07:32:48;;;;;;;12.65;8.13;;;;;;;5.91;67.45;102242.34;5244622;28;20064;-67
2023/04/05 07:35:19;;;;;;;14.75;8.68;;;;;;;6.11;69.15;102244.16;5244664;28;20497;-67
2023/04/05 07:37:51;;;;;;;13.35;8.63;;;;;;;6.20;66.11;102230.72;5243413;28;20413;-67
2023/04/05 07:40:23;;;;;;;17.08;8.35;;;;;;;6.29;67.05;102243.34;5240292;28;20426;-67
2023/04/05 07:42:54;;;;;;;15.05;7.72;;;;;;;6.40;65.48;102235.88;5244979;28;20023;-67
2023/04/05 07:45:26;;;;;;;11.82;7.05;;;;;;;6.45;62.65;102244.34;5240272;28;20032;-68
2023/04/05 07:47:57;;;;;;;10.32;7.20;;;;;;;6.65;60.90;102243.41;5238353;28;20516;-67
2023/04/05 07:50:28;;;;;;;16.08;8.10;;;;;;;6.60;61.66;102237.59;5242627;28;20032;-67
2023/04/05 07:53:00;;;;;;;14.07;7.70;;;;;;;6.81;60.50;102246.16;5243838;28;20025;-68
2023/04/05 07:55:31;;;;;;;11.52;7.57;;;;;;;6.97;60.95;102241.94;5243915;28;20017;-67
2023/04/05 07:58:02;;;;;;;11.95;7.72;;;;;;;7.20;59.11;102245.22;5240057;28;20032;-68
2023/04/05 08:00:33;;;;;;;10.95;7.15;;;;;;;7.28;57.41;102240.47;5245015;28;20056;-67
2023/04/05 08:03:05;;;;;;;10.60;7.50;;;;;;;7.38;58.30;102243.44;5245505;28;20049;-68
2023/04/05 08:05:36;;;;;;;11.20;7.70;;;;;;;7.50;56.75;102241.09;5239972;28;20124;-68
2023/04/05 08:08:09;;;;;;;12.40;7.28;;;;;;;7.70;55.39;102240.09;5241530;28;20025;-68
2023/04/05 08:10:41;;;;;;;15.10;7.68;;;;;;;7.80;54.86;102243.94;5239008;28;20079;-68
2023/04/05 08:13:12;;;;;;;11.30;7.20;;;;;;;7.88;54.58;102240.06;5239153;28;20029;-68
2023/04/05 08:15:43;;;;;;;11.00;7.38;;;;;;;7.94;55.69;102235.38;5238170;28;20033;-68
2023/04/05 08:18:15;;;;;;;9.70;7.22;;;;;;;8.08;57.58;102233.84;5240370;28;20021;-68
2023/04/05 08:20:53;;;;;;;12.23;6.78;;;;;;;8.09;53.27;102241.59;5244846;28;20033;-69
2023/04/05 08:23:24;;;;;;;10.57;6.47;;;;;;;8.25;53.27;102239.00;5242415;28;20060;-69
2023/04/05 08:25:56;;;;;;;12.05;6.60;;;;;;;8.37;53.46;102240.13;5245019;28;20730;-69
2023/04/05 08:28:27;;;;;;;7.60;6.20;;;;;;;8.47;51.89;102236.97;5241687;28;20028;-69
2023/04/05 08:30:58;;;;;;;8.15;5.40;;;;;;;8.62;48.65;102237.94;5238215;28;20540;-68
2023/04/05 08:33:30;;;;;;;7.25;5.32;;;;;;;8.73;47.05;102235.56;5244182;28;20474;-69
2023/04/05 08:36:06;;;;;;;8.00;6.03;;;;;;;8.95;47.71;102231.78;5244420;28;20036;-68
2023/04/05 08:38:37;;;;;;;10.00;5.13;;;;;;;9.01;46.40;102228.81;5241659;28;20386;-69
2023/04/05 08:41:23;;;;;;;7.70;5.47;;;;;;;9.35;46.55;102224.28;5240379;28;20300;-69
2023/04/05 08:44:01;;;;;;;7.72;5.65;;;;;;;9.34;44.70;102223.44;5239462;28;20033;-68
2023/04/05 08:46:33;;;;;;;8.65;5.28;;;;;;;9.41;45.44;102232.63;5240601;28;20033;-70
2023/04/05 08:49:06;;;;;;;9.63;6.00;;;;;;;9.44;45.82;102208.91;5244079;28;20017;-68
2023/04/05 08:51:38;;;;;;;8.70;5.45;;;;;;;9.70;44.29;102232.72;5239813;28;20033;-69
2023/04/05 08:54:10;;;;;;;7.25;5.13;;;;;;;9.77;44.43;102228.78;5240408;28;20561;-69
2023/04/05 08:56:42;;;;;;;10.68;5.93;;;;;;;9.70;43.08;102223.09;5240770;28;20072;-69
2023/04/05 08:59:16;;;;;;;11.10;5.77;;;;;;;9.91;42.57;102230.59;5243047;28;20021;-68
2023/04/05 09:01:49;;;;;;;8.57;5.10;;;;;;;9.87;44.43;102219.44;5236744;28;20025;-68
2023/04/05 09:04:26;;;;;;;8.60;5.80;;;;;;;10.03;44.68;102218.53;5240862;28;20132;-69
2023/04/05 09:06:58;;;;;;;8.80;5.32;;;;;;;10.17;43.67;102218.53;5244405;28;20044;-69
2023/04/05 09:09:31;;;;;;;9.18;5.63;;;;;;;10.23;43.29;102219.00;5247134;28;20029;-70
2023/04/05 09:12:04;;;;;;;7.72;5.30;;;;;;;10.15;42.62;102217.78;5244818;28;20043;-69
2023/04/05 09:14:37;;;;;;;8.77;6.07;;;;;;;10.35;45.04;102217.44;5248014;28;20442;-69
2023/04/05 09:17:09;;;;;;;9.70;6.43;;;;;;;10.42;43.89;102221.38;5246028;28;20389;-69
2023/04/05 09:19:40;;;;;;;9.63;5.32;;;;;;;10.52;42.21;102216.38;5240908;28;20033;-69
2023/04/05 09:22:12;;;;;;;8.82;5.97;;;;;;;10.58;41.70;102204.69;5245050;28;20028;-69
2023/04/05 09:24:45;;;;;;;9.83;5.73;;;;;;;10.68;41.42;102209.25;5242861;28;20033;-70
2023/04/05 09:27:18;;;;;;;11.25;5.55;;;;;;;10.89;42.43;102212.28;5244249;28;20462;-69
2023/04/05 09:29:49;;;;;;;9.35;6.25;;;;;;;11.09;41.73;102210.13;5244909;28;20029;-70
2023/04/05 09:32:27;;;;;;;8.25;5.75;;;;;;;11.02;39.42;102209.69;5236836;28;20375;-69
2023/04/05 09:35:03;;;;;;;9.00;6.30;;;;;;;11.04;40.45;102204.34;5245057;28;20112;-70
2023/04/05 09:37:34;;;;;;;8.52;6.20;;;;;;;11.08;40.02;102200.59;5244140;28;20334;-71
2023/04/05 09:40:08;;;;;;;9.80;5.13;;;;;;;11.22;36.85;102203.16;5243250;28;20278;-69
2023/04/05 09:42:44;;;;;;;8.00;5.40;;;;;;;11.36;38.58;102208.31;5246435;28;20362;-69
2023/04/05 09:45:17;;;;;;;8.32;6.05;;;;;;;11.38;39.92;102203.81;5239901;28;20107;-69
2023/04/05 09:47:56;;;;;;;10.70;5.88;;;;;;;11.58;38.53;102193.78;5233095;28;20402;-69
2023/04/05 09:50:28;;;;;;;9.55;6.03;;;;;;;11.50;37.54;102202.16;5245851;28;20028;-69
2023/04/05 09:53:07;;;;;;;9.98;6.47;;;;;;;11.76;40.04;102200.41;5242079;28;20040;-70
2023/04/05 09:55:38;;;;;;;7.15;5.65;;;;;;;11.59;38.46;102200.69;5239306;28;20044;-69
2023/04/05 09:58:18;;;;;;;10.15;6.07;;;;;;;11.74;37.01;102202.28;5241678;28;20390;-70
2023/04/05 10:00:51;;;;;;;7.53;5.85;;;;;;;11.76;37.78;102195.16;5241956;28;20033;-69
2023/04/05 10:03:26;;;;;;;8.35;5.30;;;;;;;11.75;36.22;102192.63;5244824;28;20040;-70
2023/04/05 10:05:58;;;;;;;8.93;6.20;;;;;;;11.74;37.03;102190.94;5245153;28;20110;-69
2023/04/05 10:08:30;;;;;;;8.27;6.43;;;;;;;11.83;37.23;102190.31;5246274;28;20021;-70
2023/04/05 10:11:05;;;;;;;11.10;6.03;;;;;;;11.82;38.12;102196.50;5242649;28;20258;-69
2023/04/05 10:13:38;;;;;;;8.50;5.20;;;;;;;11.87;34.19;102179.53;5234948;28;20818;-70
2023/04/05 10:16:16;;;;;;;8.35;5.43;;;;;;;11.97;35.27;102168.38;5237290;28;20488;-69
2023/04/05 10:18:50;;;;;;;12.98;6.63;;;;;;;12.19;36.61;102173.81;5242006;28;20086;-70
2023/04/05 10:21:27;;;;;;;7.63;5.78;;;;;;;12.24;35.60;102171.72;5242098;28;20090;-70
2023/04/05 10:24:17;;;;;;;12.43;6.32;;;;;;;12.42;35.08;102174.81;5242644;28;20041;-69
2023/04/05 10:27:05;;;;;;;10.65;6.30;;;;;;;12.38;35.77;102165.47;5238020;28;20041;-70
2023/04/05 10:30:08;;;;;;;7.90;5.25;;;;;;;12.45;36.59;102169.34;5242731;28;20030;-70
2023/04/05 10:32:57;;;;;;;6.75;4.75;;;;;;;12.40;33.51;102163.59;5236468;28;20533;-70
2023/04/05 10:35:47;;;;;;;7.97;5.47;;;;;;;12.32;32.89;102163.28;5243072;28;20032;-69
2023/04/05 10:38:26;;;;;;;7.88;5.70;;;;;;;12.54;31.83;102155.56;5242411;28;20033;-70
2023/04/05 10:41:08;;;;;;;9.60;6.70;;;;;;;12.87;34.68;102156.66;5240046;28;20029;-69
2023/04/05 10:43:41;;;;;;;10.23;6.40;;;;;;;12.55;35.38;102159.00;5243542;28;20025;-69
2023/04/05 10:46:18;;;;;;;9.05;5.85;;;;;;;12.79;33.99;102162.47;5244081;28;20099;-70
2023/04/05 10:49:08;;;;;;;12.70;6.78;;;;;;;12.98;35.45;102159.34;5242536;28;20380;-70
2023/04/05 10:51:42;;;;;;;10.32;6.85;;;;;;;12.81;34.06;102152.69;5244104;28;20055;-70
2023/04/05 10:54:16;;;;;;;10.38;6.10;;;;;;;12.87;33.57;102154.84;5245311;28;20029;-70
2023/04/05 10:56:47;;;;;;;10.68;6.65;;;;;;;12.74;32.21;102150.63;5238617;28;20083;-70
2023/04/05 10:59:20;;;;;;;8.15;6.03;;;;;;;12.70;31.87;102152.66;5240414;28;20036;-69
2023/04/05 11:01:53;;;;;;;8.18;5.68;;;;;;;12.84;31.88;102133.19;5240515;28;20041;-70
2023/04/05 11:04:25;;;;;;;10.73;5.82;;;;;;;13.17;31.64;102136.91;5236362;28;20037;-70
2023/04/05 11:07:14;;;;;;;7.28;5.70;;;;;;;13.50;32.92;102136.19;5236672;28;20458;-70
2023/04/05 11:10:00;;;;;;;9.55;6.57;;;;;;;13.44;33.20;102124.31;5243924;28;20037;-69
2023/04/05 11:12:51;;;;;;;8.57;6.40;;;;;;;13.49;33.10;102134.53;5244282;28;20108;-70
2023/04/05 11:15:28;;;;;;;10.10;6.25;;;;;;;13.36;31.52;102126.69;5241113;28;20330;-70
2023/04/05 11:18:07;;;;;;;6.82;5.45;;;;;;;13.45;32.98;102128.66;5240880;28;20036;-70
2023/04/05 11:20:54;;;;;;;8.80;6.38;;;;;;;13.62;31.69;102127.34;5245573;28;20440;-70
2023/04/05 11:23:26;;;;;;;10.32;6.50;;;;;;;13.42;34.14;102126.25;5244236;28;20549;-70
2023/04/05 11:26:05;;;;;;;8.95;6.57;;;;;;;13.85;32.27;102130.81;5241113;28;20024;-70
2023/04/05 11:28:39;;;;;;;10.23;6.75;;;;;;;13.75;31.81;102121.94;5244990;28;20025;-69
2023/04/05 11:31:29;;;;;;;8.35;6.03;;;;;;;14.06;33.94;102123.03;5243210;28;20802;-71
2023/04/05 11:34:10;;;;;;;10.38;6.32;;;;;;;13.63;32.91;102110.56;5240346;28;20470;-70
2023/04/05 11:36:46;;;;;;;9.60;6.00;;;;;;;13.82;32.10;102113.44;5242639;28;20028;-70
2023/04/05 11:39:18;;;;;;;8.25;6.22;;;;;;;13.66;31.57;102115.63;5243924;28;20036;-70
2023/04/05 11:41:54;;;;;;;10.43;6.88;;;;;;;13.88;31.93;102117.41;5240973;28;20032;-70
2023/04/05 11:44:26;;;;;;;9.52;6.22;;;;;;;13.90;31.38;102104.09;5230970;28;20033;-70
2023/04/05 11:46:58;;;;;;;9.93;7.28;;;;;;;13.84;30.90;102108.91;5238739;28;20453;-70
2023/04/05 11:49:29;;;;;;;8.57;6.70;;;;;;;13.84;31.93;102108.91;5236185;28;20373;-70
2023/04/05 11:52:15;;;;;;;8.15;6.65;;;;;;;14.17;32.38;102096.66;5235300;28;20831;-70
2023/04/05 11:54:48;;;;;;;9.75;7.82;;;;;;;14.37;31.48;102097.69;5243017;28;20056;-70
2023/04/05 11:57:21;;;;;;;11.23;7.93;;;;;;;14.42;30.81;102094.69;5241707;28;20352;-70